Eden Prairie, Minnesota
Current Conditions -  °F | °C
As of 7:53 PM on Friday 24 Oct 2014 (Local Time) from KFCM Reporting Station
Clear Clear  
Wind Chill: 61°   Ceiling: Unl
Heat Index: 61°   Visibility: 10mi
Dew Point: 52°   Wind: 5mph
Humidity: 72%   Direction: 220°SW
Pressure: 29.85"   Gusts: NA
Location:  44.86°N, 93.46°W
Report Text: KFCM 250053Z 22004KT 10SM CLR 16/11 A2985 RMK AO2 SLP109 T01610111
Loading
Personal Weather Stations






























Interactive Weather Map
Tropical Storm Tracking
New forecast layout! Learn more

10-Day Weather Forecast

Advertisements
Track Severe Weather on mobile